KFTW/FTW METAR and TAF weather

Enter ICAO airport designator
Station Type Date Time Source
KFTW METAR 2019/08/24 17:53 UTC NOAA

KFTW 241753Z 10SM FEW034 31/22 A2994 RMK AO2 SLP128 T03110222 10311 20239 50001


Station Type Date Time Source
KFTW Decoded METAR 2019/08/24 17:53 UTC NOAA

Station name not available
Aug 24, 2019 - 01:53 PM EDT / 2019.08.24 1753 UTC
Visibility: 10 mile(s):0
Sky conditions: mostly clear
Temperature: 88.0 F (31.1 C)
Heat index: 94.6 F (34.8 C):1
Dew Point: 72.0 F (22.2 C)
Relative Humidity: 59%
Pressure (altimeter): 29.94 in. Hg (1013 hPa)
Pressure tendency: 0.00 inches (0.1 hPa) higher than three hours ago
ob: KFTW 241753Z 10SM FEW034 31/22 A2994 RMK AO2 SLP128 T03110222 10311 20239 50001
cycle: 18

Station Type Date Time Source
KFTW TAF 2019/08/24 18:22 UTC NOAA

TAF KFTW 241720Z 2418/2518 15005KT P6SM FEW035 SCT250
FM242000 14008KT P6SM VCTS SCT050CB BKN250
FM250000 15007KT P6SM SCT250

Example: see airport list